sensor_id;sensor_type;location;lat;lon;timestamp;P1;durP1;ratioP1;P2;durP2;ratioP2
67867;SDS011;54672;46.096;14.470;2022-07-01T00:01:59;8.57;;;4.78;;
67867;SDS011;54672;46.096;14.470;2022-07-01T00:04:25;9.18;;;4.78;;
67867;SDS011;54672;46.096;14.470;2022-07-01T00:06:52;10.15;;;4.40;;
67867;SDS011;54672;46.096;14.470;2022-07-01T00:09:18;7.93;;;4.47;;
67867;SDS011;54672;46.096;14.470;2022-07-01T00:11:44;8.27;;;4.30;;
67867;SDS011;54672;46.096;14.470;2022-07-01T00:14:09;7.88;;;4.85;;
67867;SDS011;54672;46.096;14.470;2022-07-01T00:16:35;9.65;;;4.82;;
67867;SDS011;54672;46.096;14.470;2022-07-01T00:19:01;8.52;;;4.90;;
67867;SDS011;54672;46.096;14.470;2022-07-01T00:21:27;9.73;;;5.03;;
67867;SDS011;54672;46.096;14.470;2022-07-01T00:23:52;8.05;;;5.10;;
67867;SDS011;54672;46.096;14.470;2022-07-01T00:26:18;13.25;;;5.38;;
67867;SDS011;54672;46.096;14.470;2022-07-01T00:28:43;10.18;;;5.70;;
67867;SDS011;54672;46.096;14.470;2022-07-01T00:31:08;9.65;;;5.00;;
67867;SDS011;54672;46.096;14.470;2022-07-01T00:33:34;10.60;;;4.93;;
67867;SDS011;54672;46.096;14.470;2022-07-01T00:35:59;7.85;;;4.50;;
67867;SDS011;54672;46.096;14.470;2022-07-01T00:38:25;10.80;;;4.93;;
67867;SDS011;54672;46.096;14.470;2022-07-01T00:40:54;9.75;;;4.45;;
67867;SDS011;54672;46.096;14.470;2022-07-01T00:43:20;7.63;;;4.50;;
67867;SDS011;54672;46.096;14.470;2022-07-01T00:45:50;9.77;;;4.28;;
67867;SDS011;54672;46.096;14.470;2022-07-01T00:48:16;9.02;;;4.43;;
67867;SDS011;54672;46.096;14.470;2022-07-01T00:50:43;8.13;;;4.47;;
67867;SDS011;54672;46.096;14.470;2022-07-01T00:53:09;7.75;;;4.72;;
67867;SDS011;54672;46.096;14.470;2022-07-01T00:55:34;9.05;;;5.20;;
67867;SDS011;54672;46.096;14.470;2022-07-01T00:58:00;9.25;;;5.13;;
67867;SDS011;54672;46.096;14.470;2022-07-01T01:00:26;10.82;;;4.72;;
67867;SDS011;54672;46.096;14.470;2022-07-01T01:02:51;9.73;;;5.55;;
67867;SDS011;54672;46.096;14.470;2022-07-01T01:05:17;9.32;;;5.43;;
67867;SDS011;54672;46.096;14.470;2022-07-01T01:07:43;9.90;;;5.30;;
67867;SDS011;54672;46.096;14.470;2022-07-01T01:10:08;12.35;;;5.40;;
67867;SDS011;54672;46.096;14.470;2022-07-01T01:12:34;9.18;;;5.75;;
67867;SDS011;54672;46.096;14.470;2022-07-01T01:15:00;12.35;;;6.05;;
67867;SDS011;54672;46.096;14.470;2022-07-01T01:17:27;9.77;;;5.35;;
67867;SDS011;54672;46.096;14.470;2022-07-01T01:19:52;8.00;;;5.40;;
67867;SDS011;54672;46.096;14.470;2022-07-01T01:22:20;11.60;;;5.50;;
67867;SDS011;54672;46.096;14.470;2022-07-01T01:24:46;12.38;;;5.97;;
67867;SDS011;54672;46.096;14.470;2022-07-01T01:27:14;8.93;;;5.80;;
67867;SDS011;54672;46.096;14.470;2022-07-01T01:29:41;10.25;;;6.10;;
67867;SDS011;54672;46.096;14.470;2022-07-01T01:32:07;9.65;;;5.63;;
67867;SDS011;54672;46.096;14.470;2022-07-01T01:34:36;9.73;;;5.65;;
67867;SDS011;54672;46.096;14.470;2022-07-01T01:37:03;11.00;;;5.60;;
67867;SDS011;54672;46.096;14.470;2022-07-01T01:39:31;10.00;;;5.32;;
67867;SDS011;54672;46.096;14.470;2022-07-01T01:41:56;10.75;;;5.20;;
67867;SDS011;54672;46.096;14.470;2022-07-01T01:44:21;9.18;;;5.50;;
67867;SDS011;54672;46.096;14.470;2022-07-01T01:46:47;14.70;;;5.28;;
67867;SDS011;54672;46.096;14.470;2022-07-01T01:49:12;10.80;;;5.32;;
67867;SDS011;54672;46.096;14.470;2022-07-01T01:51:38;9.52;;;5.53;;
67867;SDS011;54672;46.096;14.470;2022-07-01T01:54:04;8.70;;;5.57;;
67867;SDS011;54672;46.096;14.470;2022-07-01T01:56:29;10.25;;;5.97;;
67867;SDS011;54672;46.096;14.470;2022-07-01T01:58:55;16.98;;;5.55;;
67867;SDS011;54672;46.096;14.470;2022-07-01T02:01:21;9.40;;;5.50;;
67867;SDS011;54672;46.096;14.470;2022-07-01T02:03:48;10.43;;;5.60;;
67867;SDS011;54672;46.096;14.470;2022-07-01T02:06:15;8.15;;;5.25;;
67867;SDS011;54672;46.096;14.470;2022-07-01T02:08:41;9.68;;;4.90;;
67867;SDS011;54672;46.096;14.470;2022-07-01T02:11:07;9.77;;;5.05;;
67867;SDS011;54672;46.096;14.470;2022-07-01T02:13:33;10.52;;;5.15;;
67867;SDS011;54672;46.096;14.470;2022-07-01T02:15:59;8.77;;;4.95;;
67867;SDS011;54672;46.096;14.470;2022-07-01T02:18:25;10.75;;;5.05;;
67867;SDS011;54672;46.096;14.470;2022-07-01T02:20:51;11.27;;;4.82;;
67867;SDS011;54672;46.096;14.470;2022-07-01T02:23:16;7.15;;;4.65;;
67867;SDS011;54672;46.096;14.470;2022-07-01T02:25:42;8.20;;;4.85;;
67867;SDS011;54672;46.096;14.470;2022-07-01T02:28:08;6.95;;;4.78;;
67867;SDS011;54672;46.096;14.470;2022-07-01T02:30:34;15.63;;;5.80;;
67867;SDS011;54672;46.096;14.470;2022-07-01T02:33:03;9.20;;;5.43;;
67867;SDS011;54672;46.096;14.470;2022-07-01T02:35:30;10.70;;;5.78;;
67867;SDS011;54672;46.096;14.470;2022-07-01T02:37:57;11.07;;;6.05;;
67867;SDS011;54672;46.096;14.470;2022-07-01T02:40:22;9.98;;;5.40;;
67867;SDS011;54672;46.096;14.470;2022-07-01T02:42:48;16.58;;;6.50;;
67867;SDS011;54672;46.096;14.470;2022-07-01T02:45:13;11.55;;;6.18;;
67867;SDS011;54672;46.096;14.470;2022-07-01T02:47:39;11.65;;;6.25;;
67867;SDS011;54672;46.096;14.470;2022-07-01T02:50:06;10.85;;;5.80;;
67867;SDS011;54672;46.096;14.470;2022-07-01T02:52:34;9.73;;;6.47;;
67867;SDS011;54672;46.096;14.470;2022-07-01T02:55:02;16.13;;;6.50;;
67867;SDS011;54672;46.096;14.470;2022-07-01T02:57:28;10.43;;;6.43;;
67867;SDS011;54672;46.096;14.470;2022-07-01T02:59:54;12.00;;;6.68;;
67867;SDS011;54672;46.096;14.470;2022-07-01T03:02:20;9.40;;;5.95;;
67867;SDS011;54672;46.096;14.470;2022-07-01T03:04:49;11.27;;;5.80;;
67867;SDS011;54672;46.096;14.470;2022-07-01T03:07:15;9.57;;;5.55;;
67867;SDS011;54672;46.096;14.470;2022-07-01T03:09:42;9.77;;;6.78;;
67867;SDS011;54672;46.096;14.470;2022-07-01T03:12:08;13.93;;;6.80;;
67867;SDS011;54672;46.096;14.470;2022-07-01T03:14:53;15.10;;;6.90;;
67867;SDS011;54672;46.096;14.470;2022-07-01T03:17:26;11.27;;;7.13;;
67867;SDS011;54672;46.096;14.470;2022-07-01T03:19:54;20.75;;;7.43;;
67867;SDS011;54672;46.096;14.470;2022-07-01T03:22:20;13.82;;;6.38;;
67867;SDS011;54672;46.096;14.470;2022-07-01T03:24:47;10.68;;;6.60;;
67867;SDS011;54672;46.096;14.470;2022-07-01T03:27:13;11.80;;;6.10;;
67867;SDS011;54672;46.096;14.470;2022-07-01T03:29:38;10.75;;;5.78;;
67867;SDS011;54672;46.096;14.470;2022-07-01T03:32:04;12.00;;;6.00;;
67867;SDS011;54672;46.096;14.470;2022-07-01T03:34:30;12.95;;;6.70;;
67867;SDS011;54672;46.096;14.470;2022-07-01T03:36:56;12.70;;;6.47;;
67867;SDS011;54672;46.096;14.470;2022-07-01T03:39:21;13.90;;;6.05;;
67867;SDS011;54672;46.096;14.470;2022-07-01T03:41:46;12.35;;;5.88;;
67867;SDS011;54672;46.096;14.470;2022-07-01T03:44:12;13.32;;;6.38;;
67867;SDS011;54672;46.096;14.470;2022-07-01T03:46:37;9.63;;;6.30;;
67867;SDS011;54672;46.096;14.470;2022-07-01T03:49:03;8.40;;;5.75;;
67867;SDS011;54672;46.096;14.470;2022-07-01T03:51:29;13.73;;;5.93;;
67867;SDS011;54672;46.096;14.470;2022-07-01T03:53:55;10.13;;;6.00;;
67867;SDS011;54672;46.096;14.470;2022-07-01T03:56:39;12.43;;;6.32;;
67867;SDS011;54672;46.096;14.470;2022-07-01T03:59:05;9.85;;;5.80;;
67867;SDS011;54672;46.096;14.470;2022-07-01T04:01:30;10.07;;;5.85;;
67867;SDS011;54672;46.096;14.470;2022-07-01T04:03:56;9.93;;;5.75;;
67867;SDS011;54672;46.096;14.470;2022-07-01T04:06:21;10.73;;;6.15;;
67867;SDS011;54672;46.096;14.470;2022-07-01T04:08:47;11.20;;;6.38;;
67867;SDS011;54672;46.096;14.470;2022-07-01T04:11:13;14.90;;;6.35;;
67867;SDS011;54672;46.096;14.470;2022-07-01T04:13:39;11.27;;;5.82;;
67867;SDS011;54672;46.096;14.470;2022-07-01T04:16:05;11.73;;;6.90;;
67867;SDS011;54672;46.096;14.470;2022-07-01T04:18:31;10.45;;;6.28;;
67867;SDS011;54672;46.096;14.470;2022-07-01T04:20:57;11.85;;;6.57;;
67867;SDS011;54672;46.096;14.470;2022-07-01T04:23:41;9.77;;;5.30;;
67867;SDS011;54672;46.096;14.470;2022-07-01T04:26:07;8.00;;;5.50;;
67867;SDS011;54672;46.096;14.470;2022-07-01T04:28:33;7.63;;;4.47;;
67867;SDS011;54672;46.096;14.470;2022-07-01T04:30:58;12.75;;;4.97;;
67867;SDS011;54672;46.096;14.470;2022-07-01T04:33:24;9.60;;;5.05;;
67867;SDS011;54672;46.096;14.470;2022-07-01T04:35:51;6.47;;;4.68;;
67867;SDS011;54672;46.096;14.470;2022-07-01T04:38:16;11.32;;;4.93;;
67867;SDS011;54672;46.096;14.470;2022-07-01T04:40:41;10.05;;;4.72;;
67867;SDS011;54672;46.096;14.470;2022-07-01T04:43:27;10.65;;;4.30;;
67867;SDS011;54672;46.096;14.470;2022-07-01T04:45:53;8.05;;;4.55;;
67867;SDS011;54672;46.096;14.470;2022-07-01T04:48:18;13.75;;;5.15;;
67867;SDS011;54672;46.096;14.470;2022-07-01T04:50:44;6.50;;;4.70;;
67867;SDS011;54672;46.096;14.470;2022-07-01T04:53:09;8.43;;;4.43;;
67867;SDS011;54672;46.096;14.470;2022-07-01T04:55:35;8.05;;;4.38;;
67867;SDS011;54672;46.096;14.470;2022-07-01T04:58:00;8.88;;;4.50;;
67867;SDS011;54672;46.096;14.470;2022-07-01T05:00:25;8.18;;;4.90;;
67867;SDS011;54672;46.096;14.470;2022-07-01T05:02:51;8.40;;;5.00;;
67867;SDS011;54672;46.096;14.470;2022-07-01T05:05:16;10.48;;;4.65;;
67867;SDS011;54672;46.096;14.470;2022-07-01T05:07:42;8.85;;;4.65;;
67867;SDS011;54672;46.096;14.470;2022-07-01T05:10:07;8.50;;;4.85;;
67867;SDS011;54672;46.096;14.470;2022-07-01T05:12:33;7.80;;;4.72;;
67867;SDS011;54672;46.096;14.470;2022-07-01T05:14:59;8.70;;;5.05;;
67867;SDS011;54672;46.096;14.470;2022-07-01T05:17:24;9.40;;;4.95;;
67867;SDS011;54672;46.096;14.470;2022-07-01T05:20:10;11.07;;;5.20;;
67867;SDS011;54672;46.096;14.470;2022-07-01T05:22:54;8.02;;;5.00;;
67867;SDS011;54672;46.096;14.470;2022-07-01T05:25:19;7.03;;;5.07;;
67867;SDS011;54672;46.096;14.470;2022-07-01T05:27:45;9.95;;;4.80;;
67867;SDS011;54672;46.096;14.470;2022-07-01T05:30:10;9.18;;;4.97;;
67867;SDS011;54672;46.096;14.470;2022-07-01T05:32:36;12.23;;;5.43;;
67867;SDS011;54672;46.096;14.470;2022-07-01T05:35:02;9.93;;;4.90;;
67867;SDS011;54672;46.096;14.470;2022-07-01T05:37:27;8.45;;;4.60;;
67867;SDS011;54672;46.096;14.470;2022-07-01T05:39:53;8.65;;;4.45;;
67867;SDS011;54672;46.096;14.470;2022-07-01T05:42:18;11.18;;;5.15;;
67867;SDS011;54672;46.096;14.470;2022-07-01T05:44:44;9.82;;;4.57;;
67867;SDS011;54672;46.096;14.470;2022-07-01T05:47:09;8.07;;;5.18;;
67867;SDS011;54672;46.096;14.470;2022-07-01T05:49:35;9.35;;;4.43;;
67867;SDS011;54672;46.096;14.470;2022-07-01T05:52:00;8.15;;;4.55;;
67867;SDS011;54672;46.096;14.470;2022-07-01T05:54:25;8.32;;;4.65;;
67867;SDS011;54672;46.096;14.470;2022-07-01T05:56:51;8.10;;;4.38;;
67867;SDS011;54672;46.096;14.470;2022-07-01T05:59:16;8.63;;;4.28;;
67867;SDS011;54672;46.096;14.470;2022-07-01T06:01:42;8.38;;;4.72;;
67867;SDS011;54672;46.096;14.470;2022-07-01T06:04:09;9.18;;;4.50;;
67867;SDS011;54672;46.096;14.470;2022-07-01T06:06:34;7.30;;;4.18;;
67867;SDS011;54672;46.096;14.470;2022-07-01T06:09:00;6.20;;;3.92;;
67867;SDS011;54672;46.096;14.470;2022-07-01T06:11:25;6.57;;;3.97;;
67867;SDS011;54672;46.096;14.470;2022-07-01T06:13:50;7.22;;;4.20;;
67867;SDS011;54672;46.096;14.470;2022-07-01T06:16:16;9.38;;;3.97;;
67867;SDS011;54672;46.096;14.470;2022-07-01T06:18:41;7.28;;;3.67;;
67867;SDS011;54672;46.096;14.470;2022-07-01T06:21:07;6.68;;;4.05;;
67867;SDS011;54672;46.096;14.470;2022-07-01T06:23:32;8.27;;;4.10;;
67867;SDS011;54672;46.096;14.470;2022-07-01T06:25:57;7.82;;;4.53;;
67867;SDS011;54672;46.096;14.470;2022-07-01T06:28:23;9.23;;;4.63;;
67867;SDS011;54672;46.096;14.470;2022-07-01T06:30:54;7.10;;;3.95;;
67867;SDS011;54672;46.096;14.470;2022-07-01T06:33:20;7.40;;;4.00;;
67867;SDS011;54672;46.096;14.470;2022-07-01T06:35:45;5.95;;;3.60;;
67867;SDS011;54672;46.096;14.470;2022-07-01T06:38:11;7.60;;;3.75;;
67867;SDS011;54672;46.096;14.470;2022-07-01T06:40:36;6.95;;;3.70;;
67867;SDS011;54672;46.096;14.470;2022-07-01T06:43:02;11.05;;;3.90;;
67867;SDS011;54672;46.096;14.470;2022-07-01T06:45:27;5.55;;;4.13;;
67867;SDS011;54672;46.096;14.470;2022-07-01T06:47:53;5.80;;;3.90;;
67867;SDS011;54672;46.096;14.470;2022-07-01T06:50:18;8.70;;;3.95;;
67867;SDS011;54672;46.096;14.470;2022-07-01T06:52:44;7.22;;;4.10;;
67867;SDS011;54672;46.096;14.470;2022-07-01T06:55:09;6.45;;;3.42;;
67867;SDS011;54672;46.096;14.470;2022-07-01T06:57:34;8.70;;;3.80;;
67867;SDS011;54672;46.096;14.470;2022-07-01T07:00:00;5.75;;;3.83;;
67867;SDS011;54672;46.096;14.470;2022-07-01T07:02:25;8.40;;;3.90;;
67867;SDS011;54672;46.096;14.470;2022-07-01T07:04:51;6.38;;;4.22;;
67867;SDS011;54672;46.096;14.470;2022-07-01T07:07:22;6.17;;;3.77;;
67867;SDS011;54672;46.096;14.470;2022-07-01T07:09:47;8.95;;;3.95;;
67867;SDS011;54672;46.096;14.470;2022-07-01T07:12:13;6.95;;;3.45;;
67867;SDS011;54672;46.096;14.470;2022-07-01T07:14:38;6.97;;;3.17;;
67867;SDS011;54672;46.096;14.470;2022-07-01T07:17:03;7.30;;;3.70;;
67867;SDS011;54672;46.096;14.470;2022-07-01T07:19:29;9.95;;;3.33;;
67867;SDS011;54672;46.096;14.470;2022-07-01T07:21:54;5.90;;;3.53;;
67867;SDS011;54672;46.096;14.470;2022-07-01T07:24:21;9.98;;;3.95;;
67867;SDS011;54672;46.096;14.470;2022-07-01T07:26:47;7.07;;;3.85;;
67867;SDS011;54672;46.096;14.470;2022-07-01T07:29:13;7.78;;;3.50;;
67867;SDS011;54672;46.096;14.470;2022-07-01T07:31:38;4.80;;;2.90;;
67867;SDS011;54672;46.096;14.470;2022-07-01T07:34:04;7.30;;;3.47;;
67867;SDS011;54672;46.096;14.470;2022-07-01T07:36:30;7.68;;;3.17;;
67867;SDS011;54672;46.096;14.470;2022-07-01T07:38:57;8.55;;;3.70;;
67867;SDS011;54672;46.096;14.470;2022-07-01T07:41:22;6.32;;;3.38;;
67867;SDS011;54672;46.096;14.470;2022-07-01T07:43:48;7.85;;;4.25;;
67867;SDS011;54672;46.096;14.470;2022-07-01T07:46:14;6.65;;;3.75;;
67867;SDS011;54672;46.096;14.470;2022-07-01T07:48:39;7.95;;;3.97;;
67867;SDS011;54672;46.096;14.470;2022-07-01T07:51:06;7.38;;;3.55;;
67867;SDS011;54672;46.096;14.470;2022-07-01T07:53:32;6.65;;;3.83;;
67867;SDS011;54672;46.096;14.470;2022-07-01T07:55:57;9.13;;;4.53;;
67867;SDS011;54672;46.096;14.470;2022-07-01T07:58:23;7.35;;;4.65;;
67867;SDS011;54672;46.096;14.470;2022-07-01T08:00:48;8.00;;;3.65;;
67867;SDS011;54672;46.096;14.470;2022-07-01T08:03:14;7.78;;;4.38;;
67867;SDS011;54672;46.096;14.470;2022-07-01T08:05:39;8.35;;;4.00;;
67867;SDS011;54672;46.096;14.470;2022-07-01T08:08:07;7.05;;;4.30;;
67867;SDS011;54672;46.096;14.470;2022-07-01T08:10:33;11.07;;;4.40;;
67867;SDS011;54672;46.096;14.470;2022-07-01T08:12:58;9.77;;;3.90;;
67867;SDS011;54672;46.096;14.470;2022-07-01T08:15:28;7.43;;;4.22;;
67867;SDS011;54672;46.096;14.470;2022-07-01T08:17:55;10.50;;;4.60;;
67867;SDS011;54672;46.096;14.470;2022-07-01T08:20:20;10.85;;;4.45;;
67867;SDS011;54672;46.096;14.470;2022-07-01T08:22:46;8.48;;;4.00;;
67867;SDS011;54672;46.096;14.470;2022-07-01T08:25:12;8.35;;;3.60;;
67867;SDS011;54672;46.096;14.470;2022-07-01T08:27:37;7.68;;;3.83;;
67867;SDS011;54672;46.096;14.470;2022-07-01T08:30:03;7.13;;;3.60;;
67867;SDS011;54672;46.096;14.470;2022-07-01T08:32:28;6.63;;;3.78;;
67867;SDS011;54672;46.096;14.470;2022-07-01T08:34:54;6.78;;;3.92;;
67867;SDS011;54672;46.096;14.470;2022-07-01T08:37:19;6.65;;;3.90;;
67867;SDS011;54672;46.096;14.470;2022-07-01T08:39:45;8.40;;;3.67;;
67867;SDS011;54672;46.096;14.470;2022-07-01T08:42:10;8.15;;;3.70;;
67867;SDS011;54672;46.096;14.470;2022-07-01T08:44:36;5.60;;;3.38;;
67867;SDS011;54672;46.096;14.470;2022-07-01T08:47:02;7.57;;;3.50;;
67867;SDS011;54672;46.096;14.470;2022-07-01T08:49:28;6.70;;;3.85;;
67867;SDS011;54672;46.096;14.470;2022-07-01T08:51:53;9.85;;;3.38;;
67867;SDS011;54672;46.096;14.470;2022-07-01T08:54:19;6.70;;;3.83;;
67867;SDS011;54672;46.096;14.470;2022-07-01T08:56:44;6.53;;;3.58;;
67867;SDS011;54672;46.096;14.470;2022-07-01T08:59:13;9.68;;;3.83;;
67867;SDS011;54672;46.096;14.470;2022-07-01T09:01:53;7.90;;;3.70;;
67867;SDS011;54672;46.096;14.470;2022-07-01T09:04:20;4.70;;;3.25;;
67867;SDS011;54672;46.096;14.470;2022-07-01T09:06:46;7.30;;;3.70;;
67867;SDS011;54672;46.096;14.470;2022-07-01T09:09:13;5.10;;;3.20;;
67867;SDS011;54672;46.096;14.470;2022-07-01T09:11:47;7.18;;;3.47;;
67867;SDS011;54672;46.096;14.470;2022-07-01T09:14:20;5.78;;;3.42;;
67867;SDS011;54672;46.096;14.470;2022-07-01T09:16:49;6.70;;;3.78;;
67867;SDS011;54672;46.096;14.470;2022-07-01T09:19:16;8.35;;;3.55;;
67867;SDS011;54672;46.096;14.470;2022-07-01T09:21:47;6.15;;;3.30;;
67867;SDS011;54672;46.096;14.470;2022-07-01T09:27:03;9.07;;;3.58;;
67867;SDS011;54672;46.096;14.470;2022-07-01T09:29:34;5.82;;;3.30;;
67867;SDS011;54672;46.096;14.470;2022-07-01T09:32:02;6.47;;;3.47;;
67867;SDS011;54672;46.096;14.470;2022-07-01T09:34:36;9.90;;;3.50;;
67867;SDS011;54672;46.096;14.470;2022-07-01T09:37:05;5.65;;;3.10;;
67867;SDS011;54672;46.096;14.470;2022-07-01T09:39:44;10.52;;;3.75;;
67867;SDS011;54672;46.096;14.470;2022-07-01T09:42:14;9.32;;;4.20;;
67867;SDS011;54672;46.096;14.470;2022-07-01T09:44:52;8.70;;;3.80;;
67867;SDS011;54672;46.096;14.470;2022-07-01T09:47:21;7.00;;;3.25;;
67867;SDS011;54672;46.096;14.470;2022-07-01T09:49:48;7.35;;;3.50;;
67867;SDS011;54672;46.096;14.470;2022-07-01T09:52:14;6.25;;;3.50;;
67867;SDS011;54672;46.096;14.470;2022-07-01T09:54:41;7.80;;;3.38;;
67867;SDS011;54672;46.096;14.470;2022-07-01T09:57:07;8.15;;;3.78;;
67867;SDS011;54672;46.096;14.470;2022-07-01T09:59:32;9.65;;;3.65;;
67867;SDS011;54672;46.096;14.470;2022-07-01T10:01:58;8.10;;;3.15;;
67867;SDS011;54672;46.096;14.470;2022-07-01T10:04:25;8.07;;;3.53;;
67867;SDS011;54672;46.096;14.470;2022-07-01T10:14:35;5.85;;;3.13;;
67867;SDS011;54672;46.096;14.470;2022-07-01T10:17:03;5.03;;;2.92;;
67867;SDS011;54672;46.096;14.470;2022-07-01T10:19:30;6.35;;;3.20;;
67867;SDS011;54672;46.096;14.470;2022-07-01T10:21:57;5.53;;;3.30;;
67867;SDS011;54672;46.096;14.470;2022-07-01T10:24:26;5.00;;;2.72;;
67867;SDS011;54672;46.096;14.470;2022-07-01T10:26:52;8.75;;;3.17;;
67867;SDS011;54672;46.096;14.470;2022-07-01T10:32:00;6.90;;;2.80;;
67867;SDS011;54672;46.096;14.470;2022-07-01T10:34:31;4.50;;;2.75;;
67867;SDS011;54672;46.096;14.470;2022-07-01T10:37:03;5.13;;;2.58;;
67867;SDS011;54672;46.096;14.470;2022-07-01T10:39:37;4.85;;;2.72;;
67867;SDS011;54672;46.096;14.470;2022-07-01T10:42:28;7.13;;;3.00;;
67867;SDS011;54672;46.096;14.470;2022-07-01T10:45:01;4.88;;;2.92;;
67867;SDS011;54672;46.096;14.470;2022-07-01T10:47:37;6.32;;;3.03;;
67867;SDS011;54672;46.096;14.470;2022-07-01T10:50:08;4.72;;;2.80;;
67867;SDS011;54672;46.096;14.470;2022-07-01T10:52:35;5.43;;;2.53;;
67867;SDS011;54672;46.096;14.470;2022-07-01T10:55:02;5.40;;;3.05;;
67867;SDS011;54672;46.096;14.470;2022-07-01T10:57:34;5.22;;;3.15;;
67867;SDS011;54672;46.096;14.470;2022-07-01T11:02:37;4.65;;;2.97;;
67867;SDS011;54672;46.096;14.470;2022-07-01T11:07:33;5.20;;;2.78;;
67867;SDS011;54672;46.096;14.470;2022-07-01T11:10:00;6.00;;;2.70;;
67867;SDS011;54672;46.096;14.470;2022-07-01T11:12:27;4.70;;;3.03;;
67867;SDS011;54672;46.096;14.470;2022-07-01T11:14:54;5.97;;;2.70;;
67867;SDS011;54672;46.096;14.470;2022-07-01T11:17:21;6.35;;;2.97;;
67867;SDS011;54672;46.096;14.470;2022-07-01T11:19:50;6.85;;;2.80;;
67867;SDS011;54672;46.096;14.470;2022-07-01T11:22:25;5.68;;;2.83;;
67867;SDS011;54672;46.096;14.470;2022-07-01T11:24:52;6.20;;;2.63;;
67867;SDS011;54672;46.096;14.470;2022-07-01T11:27:19;6.57;;;2.67;;
67867;SDS011;54672;46.096;14.470;2022-07-01T11:29:50;6.13;;;2.65;;
67867;SDS011;54672;46.096;14.470;2022-07-01T11:34:55;3.55;;;2.60;;
67867;SDS011;54672;46.096;14.470;2022-07-01T11:37:21;4.32;;;2.80;;
67867;SDS011;54672;46.096;14.470;2022-07-01T11:40:06;4.93;;;2.72;;
67867;SDS011;54672;46.096;14.470;2022-07-01T11:42:33;5.47;;;2.50;;
67867;SDS011;54672;46.096;14.470;2022-07-01T11:44:59;4.53;;;2.65;;
67867;SDS011;54672;46.096;14.470;2022-07-01T11:47:26;6.18;;;2.78;;
67867;SDS011;54672;46.096;14.470;2022-07-01T11:49:52;3.42;;;2.42;;
67867;SDS011;54672;46.096;14.470;2022-07-01T11:52:18;7.18;;;3.08;;
67867;SDS011;54672;46.096;14.470;2022-07-01T11:54:47;6.85;;;3.30;;
67867;SDS011;54672;46.096;14.470;2022-07-01T11:57:15;4.63;;;2.70;;
67867;SDS011;54672;46.096;14.470;2022-07-01T11:59:46;3.83;;;2.70;;
67867;SDS011;54672;46.096;14.470;2022-07-01T12:02:13;7.10;;;2.85;;
67867;SDS011;54672;46.096;14.470;2022-07-01T12:04:39;5.07;;;2.63;;
67867;SDS011;54672;46.096;14.470;2022-07-01T12:07:05;7.38;;;2.80;;
67867;SDS011;54672;46.096;14.470;2022-07-01T12:09:31;5.28;;;2.95;;
67867;SDS011;54672;46.096;14.470;2022-07-01T12:11:57;5.15;;;2.88;;
67867;SDS011;54672;46.096;14.470;2022-07-01T12:14:26;6.78;;;3.00;;
67867;SDS011;54672;46.096;14.470;2022-07-01T12:22:09;6.82;;;2.95;;
67867;SDS011;54672;46.096;14.470;2022-07-01T12:24:36;4.72;;;2.60;;
67867;SDS011;54672;46.096;14.470;2022-07-01T12:27:05;9.20;;;2.80;;
67867;SDS011;54672;46.096;14.470;2022-07-01T12:32:14;7.95;;;3.05;;
67867;SDS011;54672;46.096;14.470;2022-07-01T12:37:12;5.40;;;2.95;;
67867;SDS011;54672;46.096;14.470;2022-07-01T12:39:45;5.43;;;2.80;;
67867;SDS011;54672;46.096;14.470;2022-07-01T12:42:26;5.80;;;2.97;;
67867;SDS011;54672;46.096;14.470;2022-07-01T12:44:52;5.43;;;2.75;;
67867;SDS011;54672;46.096;14.470;2022-07-01T12:47:30;5.47;;;3.00;;
67867;SDS011;54672;46.096;14.470;2022-07-01T12:52:35;6.50;;;3.03;;
67867;SDS011;54672;46.096;14.470;2022-07-01T12:57:45;6.38;;;2.72;;
67867;SDS011;54672;46.096;14.470;2022-07-01T13:00:15;3.88;;;3.08;;
67867;SDS011;54672;46.096;14.470;2022-07-01T13:02:41;7.05;;;2.92;;
67867;SDS011;54672;46.096;14.470;2022-07-01T13:05:07;5.22;;;3.05;;
67867;SDS011;54672;46.096;14.470;2022-07-01T13:07:33;10.57;;;4.13;;
67867;SDS011;54672;46.096;14.470;2022-07-01T13:09:58;9.25;;;4.00;;
67867;SDS011;54672;46.096;14.470;2022-07-01T13:12:24;5.30;;;3.60;;
67867;SDS011;54672;46.096;14.470;2022-07-01T13:14:49;5.50;;;3.50;;
67867;SDS011;54672;46.096;14.470;2022-07-01T13:17:15;11.30;;;3.72;;
67867;SDS011;54672;46.096;14.470;2022-07-01T13:19:40;7.53;;;4.28;;
67867;SDS011;54672;46.096;14.470;2022-07-01T13:22:06;8.27;;;4.20;;
67867;SDS011;54672;46.096;14.470;2022-07-01T13:24:31;5.03;;;3.67;;
67867;SDS011;54672;46.096;14.470;2022-07-01T13:26:57;6.82;;;3.70;;
67867;SDS011;54672;46.096;14.470;2022-07-01T13:29:22;6.43;;;3.90;;
67867;SDS011;54672;46.096;14.470;2022-07-01T13:31:48;8.95;;;4.20;;
67867;SDS011;54672;46.096;14.470;2022-07-01T13:34:14;6.90;;;3.45;;
67867;SDS011;54672;46.096;14.470;2022-07-01T13:36:39;5.82;;;3.25;;
67867;SDS011;54672;46.096;14.470;2022-07-01T13:39:04;8.35;;;4.13;;
67867;SDS011;54672;46.096;14.470;2022-07-01T13:41:30;5.00;;;3.42;;
67867;SDS011;54672;46.096;14.470;2022-07-01T13:43:55;11.07;;;3.58;;
67867;SDS011;54672;46.096;14.470;2022-07-01T13:46:21;7.88;;;3.97;;
67867;SDS011;54672;46.096;14.470;2022-07-01T13:48:46;6.13;;;3.50;;
67867;SDS011;54672;46.096;14.470;2022-07-01T13:51:12;9.32;;;3.88;;
67867;SDS011;54672;46.096;14.470;2022-07-01T13:53:37;6.18;;;3.60;;
67867;SDS011;54672;46.096;14.470;2022-07-01T13:56:03;6.25;;;3.88;;
67867;SDS011;54672;46.096;14.470;2022-07-01T13:58:29;7.28;;;3.63;;
67867;SDS011;54672;46.096;14.470;2022-07-01T14:00:55;9.55;;;3.90;;
67867;SDS011;54672;46.096;14.470;2022-07-01T14:03:20;7.10;;;3.50;;
67867;SDS011;54672;46.096;14.470;2022-07-01T14:05:46;5.57;;;3.50;;
67867;SDS011;54672;46.096;14.470;2022-07-01T14:08:11;10.15;;;4.13;;
67867;SDS011;54672;46.096;14.470;2022-07-01T14:10:37;6.80;;;3.75;;
67867;SDS011;54672;46.096;14.470;2022-07-01T14:13:03;6.63;;;3.50;;
67867;SDS011;54672;46.096;14.470;2022-07-01T14:15:29;9.52;;;3.80;;
67867;SDS011;54672;46.096;14.470;2022-07-01T14:17:55;10.30;;;3.92;;
67867;SDS011;54672;46.096;14.470;2022-07-01T14:20:21;8.73;;;3.72;;
67867;SDS011;54672;46.096;14.470;2022-07-01T14:22:46;10.35;;;4.05;;
67867;SDS011;54672;46.096;14.470;2022-07-01T14:25:12;7.75;;;3.50;;
67867;SDS011;54672;46.096;14.470;2022-07-01T14:27:38;8.82;;;3.58;;
67867;SDS011;54672;46.096;14.470;2022-07-01T14:30:03;7.03;;;3.80;;
67867;SDS011;54672;46.096;14.470;2022-07-01T14:32:31;5.55;;;3.60;;
67867;SDS011;54672;46.096;14.470;2022-07-01T14:34:57;8.60;;;4.10;;
67867;SDS011;54672;46.096;14.470;2022-07-01T14:37:22;6.25;;;3.70;;
67867;SDS011;54672;46.096;14.470;2022-07-01T14:39:48;6.32;;;3.78;;
67867;SDS011;54672;46.096;14.470;2022-07-01T14:42:18;9.48;;;4.20;;
67867;SDS011;54672;46.096;14.470;2022-07-01T14:44:43;10.38;;;4.10;;
67867;SDS011;54672;46.096;14.470;2022-07-01T14:47:09;7.47;;;3.88;;
67867;SDS011;54672;46.096;14.470;2022-07-01T14:49:34;6.75;;;3.50;;
67867;SDS011;54672;46.096;14.470;2022-07-01T14:52:01;9.63;;;4.20;;
67867;SDS011;54672;46.096;14.470;2022-07-01T14:54:28;7.47;;;3.78;;
67867;SDS011;54672;46.096;14.470;2022-07-01T14:56:53;12.52;;;4.72;;
67867;SDS011;54672;46.096;14.470;2022-07-01T14:59:19;8.10;;;4.20;;
67867;SDS011;54672;46.096;14.470;2022-07-01T15:01:45;8.02;;;4.07;;
67867;SDS011;54672;46.096;14.470;2022-07-01T15:04:10;8.55;;;3.85;;
67867;SDS011;54672;46.096;14.470;2022-07-01T15:06:36;8.27;;;4.20;;